createdAt,value
2023-05-03T00:00:05.145Z,0.00
2023-05-03T00:01:04.914Z,0.00
2023-05-03T00:02:04.946Z,0.00
2023-05-03T00:03:04.977Z,0.00
2023-05-03T00:04:04.780Z,0.00
2023-05-03T00:05:06.020Z,0.00
2023-05-03T00:06:04.707Z,0.00
2023-05-03T00:07:04.656Z,0.00
2023-05-03T00:08:04.672Z,0.00
2023-05-03T00:09:04.557Z,0.00
2023-05-03T00:10:04.698Z,0.00
2023-05-03T00:11:04.484Z,0.00
2023-05-03T00:12:04.436Z,0.00
2023-05-03T00:13:04.425Z,0.00
2023-05-03T00:14:04.373Z,0.00
2023-05-03T00:15:04.292Z,0.00
2023-05-03T00:16:04.255Z,0.00
2023-05-03T00:17:04.265Z,0.00
2023-05-03T00:18:04.215Z,0.00
2023-05-03T00:19:04.120Z,0.00
2023-05-03T00:20:04.392Z,0.00
2023-05-03T00:21:04.032Z,0.00
2023-05-03T00:22:04.307Z,0.00
2023-05-03T00:23:03.939Z,0.00
2023-05-03T00:24:03.888Z,0.00
2023-05-03T00:25:03.849Z,0.00
2023-05-03T00:26:03.800Z,0.00
2023-05-03T00:27:03.762Z,0.00
2023-05-03T00:28:03.736Z,0.00
2023-05-03T00:29:03.680Z,0.00
2023-05-03T00:30:03.872Z,0.00
2023-05-03T00:31:03.606Z,0.00
2023-05-03T00:32:03.532Z,0.00
2023-05-03T00:33:03.530Z,0.00
2023-05-03T00:34:03.469Z,0.00
2023-05-03T00:35:03.413Z,0.00
2023-05-03T00:36:03.354Z,0.00
2023-05-03T00:37:03.316Z,0.00
2023-05-03T00:38:03.268Z,0.00
2023-05-03T00:39:03.227Z,0.00
2023-05-03T00:40:03.375Z,0.00
2023-05-03T00:41:03.143Z,0.00
2023-05-03T00:42:03.099Z,0.00
2023-05-03T00:43:03.080Z,0.00
2023-05-03T00:44:03.001Z,0.00
2023-05-03T00:45:02.954Z,0.00
2023-05-03T00:46:15.254Z,0.00
2023-05-03T00:47:02.908Z,0.00
2023-05-03T00:48:02.843Z,0.00
2023-05-03T00:49:02.774Z,0.00
2023-05-03T00:50:02.993Z,0.00
2023-05-03T00:51:02.694Z,0.00
2023-05-03T00:52:02.652Z,0.00
2023-05-03T00:53:02.596Z,0.00
2023-05-03T00:54:02.551Z,0.00
2023-05-03T00:55:02.502Z,0.00
2023-05-03T00:56:02.461Z,0.00
2023-05-03T00:57:02.430Z,0.00
2023-05-03T00:58:02.388Z,0.00
2023-05-03T00:59:02.338Z,0.00
2023-05-03T01:00:02.441Z,0.00
2023-05-03T01:01:02.239Z,0.00
2023-05-03T01:02:02.305Z,0.00
2023-05-03T01:03:02.233Z,0.00
2023-05-03T01:04:02.237Z,0.00
2023-05-03T01:05:02.072Z,0.00
2023-05-03T01:06:02.044Z,0.00
2023-05-03T01:07:01.965Z,0.00
2023-05-03T01:08:01.939Z,0.00
2023-05-03T01:09:01.871Z,0.00
2023-05-03T01:10:01.991Z,0.00
2023-05-03T01:11:01.774Z,0.00
2023-05-03T01:12:01.737Z,0.00
2023-05-03T01:13:01.698Z,0.00
2023-05-03T01:14:01.646Z,0.00
2023-05-03T01:15:01.604Z,0.00
2023-05-03T01:16:01.660Z,0.00
2023-05-03T01:17:01.511Z,0.00
2023-05-03T01:18:01.520Z,0.00
2023-05-03T01:19:01.429Z,0.00
2023-05-03T01:20:01.698Z,0.00
2023-05-03T01:21:01.352Z,0.00
2023-05-03T01:22:01.302Z,0.00
2023-05-03T01:23:01.265Z,0.00
2023-05-03T01:24:01.187Z,0.00
2023-05-03T01:25:01.144Z,0.00
2023-05-03T01:26:01.112Z,0.00
2023-05-03T01:27:01.060Z,0.00
2023-05-03T01:28:01.009Z,0.00
2023-05-03T01:29:00.994Z,0.00
2023-05-03T01:30:01.253Z,0.00
2023-05-03T01:31:00.882Z,0.00
2023-05-03T01:32:00.937Z,0.00
2023-05-03T01:33:00.822Z,0.00
2023-05-03T01:34:00.738Z,0.00
2023-05-03T01:35:00.709Z,0.00
2023-05-03T01:36:00.645Z,0.00
2023-05-03T01:37:00.601Z,0.00
2023-05-03T01:38:00.580Z,0.00
2023-05-03T01:39:00.510Z,0.00
2023-05-03T01:40:00.742Z,0.00
2023-05-03T01:41:00.560Z,0.00
2023-05-03T01:42:00.378Z,0.00
2023-05-03T01:43:00.333Z,0.00
2023-05-03T01:44:00.304Z,0.00
2023-05-03T01:45:00.256Z,0.00
2023-05-03T01:46:00.251Z,0.00
2023-05-03T01:47:00.193Z,0.00
2023-05-03T01:48:00.245Z,0.00
2023-05-03T01:49:00.075Z,0.00
2023-05-03T01:50:00.152Z,0.00
2023-05-03T01:50:59.972Z,0.00
2023-05-03T01:51:59.924Z,0.00
2023-05-03T01:52:59.916Z,0.00
2023-05-03T01:53:59.834Z,0.00
2023-05-03T01:54:59.790Z,0.00
2023-05-03T01:55:59.752Z,0.00
2023-05-03T01:56:59.712Z,0.00
2023-05-03T01:57:59.685Z,0.00
2023-05-03T01:58:59.606Z,0.00
2023-05-03T01:59:59.591Z,0.00
2023-05-03T02:00:59.555Z,0.00
2023-05-03T02:01:59.469Z,0.00
2023-05-03T02:02:59.500Z,0.00
2023-05-03T02:03:59.451Z,0.00
2023-05-03T02:04:59.347Z,0.00
2023-05-03T02:05:59.305Z,0.00
2023-05-03T02:06:59.277Z,0.00
2023-05-03T02:07:59.203Z,0.00
2023-05-03T02:08:59.152Z,0.00
2023-05-03T02:09:59.112Z,0.00
2023-05-03T02:10:59.063Z,0.00
2023-05-03T02:11:59.019Z,0.00
2023-05-03T02:12:59.000Z,0.00
2023-05-03T02:13:58.929Z,0.00
2023-05-03T02:14:58.878Z,0.00
2023-05-03T02:15:58.839Z,0.00
2023-05-03T02:16:58.910Z,0.00
2023-05-03T02:17:58.803Z,0.00
2023-05-03T02:18:58.714Z,0.00
2023-05-03T02:19:58.660Z,0.00
2023-05-03T02:20:58.628Z,0.00
2023-05-03T02:21:58.567Z,0.00
2023-05-03T02:22:58.518Z,0.00
2023-05-03T02:23:58.469Z,0.00
2023-05-03T02:24:58.422Z,0.00
2023-05-03T02:25:58.387Z,0.00
2023-05-03T02:26:58.443Z,0.00
2023-05-03T02:27:58.293Z,0.00
2023-05-03T02:28:58.254Z,0.00
2023-05-03T02:29:58.187Z,0.00
2023-05-03T02:30:58.191Z,0.00
2023-05-03T02:31:58.100Z,0.00
2023-05-03T02:32:58.116Z,0.00
2023-05-03T02:33:58.029Z,0.00
2023-05-03T02:34:57.973Z,0.00
2023-05-03T02:35:57.931Z,0.00
2023-05-03T02:36:57.876Z,0.00
2023-05-03T02:37:57.832Z,0.00
2023-05-03T02:38:57.826Z,0.00
2023-05-03T02:39:57.732Z,0.00
2023-05-03T02:40:57.724Z,0.00
2023-05-03T02:41:57.644Z,0.00
2023-05-03T02:42:57.614Z,0.00
2023-05-03T02:43:57.558Z,0.00
2023-05-03T02:44:57.530Z,0.00
2023-05-03T02:45:57.488Z,0.00
2023-05-03T02:46:57.424Z,0.00
2023-05-03T02:47:57.407Z,0.00
2023-05-03T02:48:57.343Z,0.00
2023-05-03T02:49:57.284Z,0.00
2023-05-03T02:50:57.257Z,0.00
2023-05-03T02:51:57.191Z,0.00
2023-05-03T02:52:57.142Z,0.00
2023-05-03T02:53:57.107Z,0.00
2023-05-03T02:54:57.059Z,0.00
2023-05-03T02:55:57.023Z,0.00
2023-05-03T02:56:56.990Z,0.00
2023-05-03T02:57:56.919Z,0.00
2023-05-03T02:58:56.904Z,0.00
2023-05-03T02:59:56.824Z,0.00
2023-05-03T03:00:56.777Z,0.00
2023-05-03T03:01:56.781Z,0.00
2023-05-03T03:02:56.743Z,0.00
2023-05-03T03:03:56.748Z,0.00
2023-05-03T03:04:56.597Z,0.00
2023-05-03T03:05:56.552Z,0.00
2023-05-03T03:06:56.502Z,0.00
2023-05-03T03:07:56.457Z,0.00
2023-05-03T03:08:56.419Z,0.00
2023-05-03T03:09:56.410Z,0.00
2023-05-03T03:10:56.319Z,0.00
2023-05-03T03:11:56.276Z,0.00
2023-05-03T03:12:56.228Z,0.00
2023-05-03T03:13:56.181Z,0.00
2023-05-03T03:14:56.134Z,0.00
2023-05-03T03:15:56.154Z,0.00
2023-05-03T03:16:56.056Z,0.00
2023-05-03T03:17:56.029Z,0.00
2023-05-03T03:18:55.950Z,0.00
2023-05-03T03:19:55.914Z,0.00
2023-05-03T03:20:55.892Z,0.00
2023-05-03T03:21:55.819Z,0.00
2023-05-03T03:22:55.801Z,0.00
2023-05-03T03:23:55.751Z,0.00
2023-05-03T03:24:55.681Z,0.00
2023-05-03T03:25:55.650Z,0.00
2023-05-03T03:26:55.589Z,0.00
2023-05-03T03:27:55.557Z,0.00
2023-05-03T03:28:55.500Z,0.00
2023-05-03T03:29:55.480Z,0.00
2023-05-03T03:30:55.418Z,0.00
2023-05-03T03:31:55.419Z,0.00
2023-05-03T03:32:55.359Z,0.00
2023-05-03T03:33:55.275Z,0.00
2023-05-03T03:34:55.248Z,0.00
2023-05-03T03:35:55.180Z,0.00
2023-05-03T03:36:55.173Z,4.00
2023-05-03T03:37:55.092Z,4.00
2023-05-03T03:38:55.052Z,0.00
2023-05-03T03:39:55.013Z,4.00
2023-05-03T03:40:54.966Z,4.00
2023-05-03T03:41:54.905Z,4.00
2023-05-03T03:42:54.877Z,4.00
2023-05-03T03:43:54.809Z,8.00
2023-05-03T03:44:54.769Z,8.00
2023-05-03T03:45:54.727Z,12.00
2023-05-03T03:46:54.728Z,12.00
2023-05-03T03:47:54.713Z,16.00
2023-05-03T03:48:54.583Z,20.00
2023-05-03T03:49:54.547Z,24.00
2023-05-03T03:50:54.510Z,24.00
2023-05-03T03:51:54.445Z,28.00
2023-05-03T03:52:54.401Z,36.00
2023-05-03T03:53:54.378Z,44.00
2023-05-03T03:54:54.307Z,52.00
2023-05-03T03:55:54.273Z,60.00
2023-05-03T03:56:54.213Z,68.00
2023-05-03T03:57:54.168Z,80.00
2023-05-03T03:58:54.150Z,92.00
2023-05-03T03:59:54.075Z,108.00
2023-05-03T04:00:54.031Z,124.00
2023-05-03T04:01:54.002Z,144.00
2023-05-03T04:02:54.069Z,164.00
2023-05-03T04:03:54.042Z,180.00
2023-05-03T04:04:53.861Z,204.00
2023-05-03T04:05:53.805Z,232.00
2023-05-03T04:06:53.795Z,260.00
2023-05-03T04:07:53.704Z,284.00
2023-05-03T04:08:53.664Z,316.00
2023-05-03T04:09:53.618Z,348.00
2023-05-03T04:10:53.590Z,384.00
2023-05-03T04:11:53.526Z,420.00
2023-05-03T04:12:53.493Z,460.00
2023-05-03T04:13:53.441Z,500.00
2023-05-03T04:14:53.393Z,540.00
2023-05-03T04:15:53.373Z,584.00
2023-05-03T04:16:53.395Z,628.00
2023-05-03T04:17:53.286Z,676.00
2023-05-03T04:18:53.212Z,728.00
2023-05-03T04:19:53.157Z,776.00
2023-05-03T04:20:53.110Z,828.00
2023-05-03T04:21:53.075Z,876.00
2023-05-03T04:22:53.041Z,932.00
2023-05-03T04:23:52.967Z,988.00
2023-05-03T04:24:52.937Z,1044.00
2023-05-03T04:25:52.878Z,1100.00
2023-05-03T04:26:52.844Z,1160.00
2023-05-03T04:27:52.786Z,1220.00
2023-05-03T04:28:52.757Z,1276.00
2023-05-03T04:29:52.698Z,1340.00
2023-05-03T04:30:52.697Z,1400.00
2023-05-03T04:31:52.623Z,1456.00
2023-05-03T04:32:52.577Z,1520.00
2023-05-03T04:33:52.517Z,1580.00
2023-05-03T04:34:53.900Z,1644.00
2023-05-03T04:35:52.419Z,1704.00
2023-05-03T04:36:52.370Z,1768.00
2023-05-03T04:37:52.329Z,1828.00
2023-05-03T04:38:52.283Z,1888.00
2023-05-03T04:39:52.236Z,1948.00
2023-05-03T04:40:52.215Z,2008.00
2023-05-03T04:41:52.150Z,2072.00
2023-05-03T04:42:52.103Z,2132.00
2023-05-03T04:43:52.058Z,2192.00
2023-05-03T04:44:52.007Z,2252.00
2023-05-03T04:45:52.002Z,2312.00
2023-05-03T04:46:51.965Z,2368.00
2023-05-03T04:47:51.896Z,2428.00
2023-05-03T04:48:51.820Z,2488.00
2023-05-03T04:49:51.777Z,2552.00
2023-05-03T04:50:51.728Z,2608.00
2023-05-03T04:51:51.763Z,2668.00
2023-05-03T04:52:51.649Z,2720.00
2023-05-03T04:53:51.592Z,2780.00
2023-05-03T04:54:51.547Z,2840.00
2023-05-03T04:55:51.511Z,2896.00
2023-05-03T04:56:51.459Z,2948.00
2023-05-03T04:57:51.424Z,3000.00
2023-05-03T04:58:51.371Z,3052.00
2023-05-03T04:59:51.317Z,3104.00
2023-05-03T05:00:51.271Z,3156.00
2023-05-03T05:01:51.256Z,3212.00
2023-05-03T05:02:51.300Z,3268.00
2023-05-03T05:03:51.398Z,3320.00
2023-05-03T05:04:51.106Z,3372.00
2023-05-03T05:05:51.069Z,3416.00
2023-05-03T05:06:51.026Z,3472.00
2023-05-03T05:07:50.949Z,3516.00
2023-05-03T05:08:50.904Z,3564.00
2023-05-03T05:09:50.871Z,3612.00
2023-05-03T05:10:50.809Z,3652.00
2023-05-03T05:11:50.775Z,3700.00
2023-05-03T05:12:51.712Z,3760.00
2023-05-03T05:13:50.673Z,3804.00
2023-05-03T05:14:50.622Z,3844.00
2023-05-03T05:15:50.624Z,3892.00
2023-05-03T05:16:50.576Z,3936.00
2023-05-03T05:17:50.602Z,3980.00
2023-05-03T05:18:50.444Z,4024.00
2023-05-03T05:19:50.402Z,4068.00
2023-05-03T05:20:50.353Z,4108.00
2023-05-03T05:21:50.345Z,4152.00
2023-05-03T05:22:50.301Z,4208.00
2023-05-03T05:23:50.222Z,4248.00
2023-05-03T05:24:50.174Z,4280.00
2023-05-03T05:25:50.121Z,4320.00
2023-05-03T05:26:50.077Z,4360.00
2023-05-03T05:27:50.052Z,4392.00
2023-05-03T05:28:49.988Z,4444.00
2023-05-03T05:29:49.963Z,4484.00
2023-05-03T05:30:49.897Z,4504.00
2023-05-03T05:31:49.873Z,4540.00
2023-05-03T05:32:49.816Z,4584.00
2023-05-03T05:33:49.795Z,4632.00
2023-05-03T05:34:49.710Z,4688.00
2023-05-03T05:35:49.663Z,4716.00
2023-05-03T05:36:49.621Z,4760.00
2023-05-03T05:37:49.579Z,4812.00
2023-05-03T05:38:49.527Z,4852.00
2023-05-03T05:39:49.512Z,4880.00
2023-05-03T05:40:49.437Z,4916.00
2023-05-03T05:41:49.395Z,4960.00
2023-05-03T05:42:49.346Z,5004.00
2023-05-03T05:43:49.329Z,5032.00
2023-05-03T05:44:49.284Z,5080.00
2023-05-03T05:45:49.231Z,5104.00
2023-05-03T05:46:49.179Z,5140.00
2023-05-03T05:47:49.132Z,5188.00
2023-05-03T05:48:49.073Z,5236.00
2023-05-03T05:49:49.047Z,5284.00
2023-05-03T05:50:49.035Z,5316.00
2023-05-03T05:51:48.958Z,5348.00
2023-05-03T05:52:48.890Z,5368.00
2023-05-03T05:53:48.853Z,5436.00
2023-05-03T05:54:48.801Z,5496.00
2023-05-03T05:55:48.753Z,5544.00
2023-05-03T05:56:48.737Z,5584.00
2023-05-03T05:57:48.947Z,5616.00
2023-05-03T05:58:48.621Z,5684.00
2023-05-03T05:59:48.574Z,5764.00
2023-05-03T06:03:48.928Z,5980.00
2023-05-03T06:04:49.058Z,6040.00
2023-05-03T06:05:48.982Z,6132.00
2023-05-03T06:06:49.105Z,6164.00
2023-05-03T06:07:48.854Z,6276.00
2023-05-03T06:08:48.653Z,6252.00
2023-05-03T06:09:48.865Z,6184.00
2023-05-03T06:10:48.924Z,6232.00
2023-05-03T06:11:48.728Z,6344.00
2023-05-03T06:12:48.684Z,6404.00
2023-05-03T06:13:48.465Z,6380.00
2023-05-03T06:15:01.431Z,6292.00
2023-05-03T06:15:48.340Z,6528.00
2023-05-03T06:16:48.592Z,6476.00
2023-05-03T06:17:48.295Z,6440.00
2023-05-03T06:18:48.192Z,6484.00
2023-05-03T06:19:48.529Z,6480.00
2023-05-03T06:20:48.102Z,6656.00
2023-05-03T06:21:48.335Z,6736.00
2023-05-03T06:22:48.015Z,6808.00
2023-05-03T06:23:48.178Z,6868.00
2023-05-03T06:24:47.923Z,6784.00
2023-05-03T06:25:48.171Z,7056.00
2023-05-03T06:26:47.832Z,7324.00
2023-05-03T06:27:47.966Z,7168.00
2023-05-03T06:28:47.754Z,7196.00
2023-05-03T06:29:48.076Z,7340.00
2023-05-03T06:30:47.671Z,7376.00
2023-05-03T06:31:47.799Z,7380.00
2023-05-03T06:32:47.603Z,7516.00
2023-05-03T06:33:47.813Z,7428.00
2023-05-03T06:34:47.473Z,7480.00
2023-05-03T06:35:47.441Z,7452.00
2023-05-03T06:36:47.836Z,8160.00
2023-05-03T06:37:47.338Z,7660.00
2023-05-03T06:38:47.434Z,7736.00
2023-05-03T06:39:47.254Z,7612.00
2023-05-03T06:40:47.204Z,7624.00
2023-05-03T06:41:47.154Z,7960.00
2023-05-03T06:42:47.270Z,7796.00
2023-05-03T06:43:47.069Z,7972.00
2023-05-03T06:44:47.284Z,7784.00
2023-05-03T06:45:46.978Z,7736.00
2023-05-03T06:46:46.971Z,7728.00
2023-05-03T06:47:46.912Z,7672.00
2023-05-03T06:48:47.332Z,7804.00
2023-05-03T06:49:46.799Z,7724.00
2023-05-03T06:50:46.909Z,7736.00
2023-05-03T06:51:46.793Z,7872.00
2023-05-03T06:52:46.927Z,7964.00
2023-05-03T06:53:46.621Z,8228.00
2023-05-03T06:54:46.748Z,8396.00
2023-05-03T06:55:46.529Z,8408.00
2023-05-03T06:56:46.749Z,8340.00
2023-05-03T06:57:46.755Z,8436.00
2023-05-03T06:58:46.396Z,8432.00
2023-05-03T06:59:46.572Z,8424.00
2023-05-03T07:00:46.349Z,8580.00
2023-05-03T07:01:46.500Z,8540.00
2023-05-03T07:02:46.288Z,8712.00
2023-05-03T07:03:46.270Z,8840.00
2023-05-03T07:04:46.317Z,8796.00
2023-05-03T07:05:46.089Z,8848.00
2023-05-03T07:06:55.892Z,8932.00
2023-05-03T07:07:45.996Z,8236.00
2023-05-03T07:08:45.966Z,9684.00
2023-05-03T07:09:45.917Z,9604.00
2023-05-03T07:10:45.930Z,9944.00
2023-05-03T07:11:45.824Z,10632.00
2023-05-03T07:12:45.981Z,9912.00
2023-05-03T07:13:45.736Z,9188.00
2023-05-03T07:14:45.698Z,9160.00
2023-05-03T07:15:45.838Z,9496.00
2023-05-03T07:16:45.667Z,10036.00
2023-05-03T07:17:45.799Z,9852.00
2023-05-03T07:18:45.627Z,10112.00
2023-05-03T07:19:45.464Z,12536.00
2023-05-03T07:20:45.430Z,10480.00
2023-05-03T07:21:45.603Z,10908.00
2023-05-03T07:22:45.346Z,13856.00
2023-05-03T07:23:45.411Z,12284.00
2023-05-03T07:24:45.321Z,12772.00
2023-05-03T07:25:45.205Z,12188.00
2023-05-03T07:26:45.692Z,13764.00
2023-05-03T07:27:45.111Z,16984.00
2023-05-03T07:28:45.246Z,17116.00
2023-05-03T07:29:45.020Z,14332.00
2023-05-03T07:30:45.464Z,12936.00
2023-05-03T07:31:44.940Z,13336.00
2023-05-03T07:32:45.155Z,12168.00
2023-05-03T07:33:44.956Z,12304.00
2023-05-03T07:34:44.886Z,11820.00
2023-05-03T07:35:44.762Z,12144.00
2023-05-03T07:36:44.727Z,10948.00
2023-05-03T07:37:44.903Z,12980.00
2023-05-03T07:38:44.629Z,14908.00
2023-05-03T07:39:44.714Z,16008.00
2023-05-03T07:40:44.540Z,13056.00
2023-05-03T07:41:44.717Z,13468.00
2023-05-03T07:42:44.581Z,13500.00
2023-05-03T07:43:45.633Z,15180.00
2023-05-03T07:44:44.364Z,15812.00
2023-05-03T07:45:44.600Z,14944.00
2023-05-03T07:46:44.279Z,19328.00
2023-05-03T07:47:44.269Z,21312.00
2023-05-03T07:48:44.416Z,18816.00
2023-05-03T07:49:44.369Z,18560.00
2023-05-03T07:50:44.106Z,20992.00
2023-05-03T07:51:44.182Z,17936.00
2023-05-03T07:52:44.016Z,14824.00
2023-05-03T07:53:44.004Z,15208.00
2023-05-03T07:54:44.204Z,12884.00
2023-05-03T07:55:43.894Z,14476.00
2023-05-03T07:56:44.013Z,13052.00
2023-05-03T07:57:43.804Z,15092.00
2023-05-03T07:58:45.046Z,12724.00
2023-05-03T07:59:43.723Z,12040.00
2023-05-03T08:00:43.838Z,14696.00
2023-05-03T08:01:43.632Z,15784.00
2023-05-03T08:02:43.761Z,21728.00
2023-05-03T08:03:43.750Z,21440.00
2023-05-03T08:04:43.877Z,15820.00
2023-05-03T08:05:43.812Z,12380.00
2023-05-03T08:06:43.573Z,33984.00
2023-05-03T08:07:43.477Z,13004.00
2023-05-03T08:08:43.316Z,14108.00
2023-05-03T08:09:43.279Z,13204.00
2023-05-03T08:10:43.243Z,12676.00
2023-05-03T08:11:44.350Z,41088.00
2023-05-03T08:12:43.180Z,16840.00
2023-05-03T08:13:43.334Z,19552.00
2023-05-03T08:14:43.178Z,19328.00
2023-05-03T08:15:43.047Z,14956.00
2023-05-03T08:16:42.982Z,23744.00
2023-05-03T08:17:43.302Z,20224.00
2023-05-03T08:18:42.902Z,16068.00
2023-05-03T08:19:42.962Z,17008.00
2023-05-03T08:20:42.811Z,20128.00
2023-05-03T08:21:43.000Z,18784.00
2023-05-03T08:22:42.733Z,32832.00
2023-05-03T08:23:43.003Z,14424.00
2023-05-03T08:24:42.641Z,20480.00
2023-05-03T08:25:42.817Z,16632.00
2023-05-03T08:26:42.649Z,17024.00
2023-05-03T08:27:42.554Z,21440.00
2023-05-03T08:28:42.645Z,25888.00
2023-05-03T08:29:42.425Z,23776.00
2023-05-03T08:30:42.436Z,22560.00
2023-05-03T08:31:42.354Z,16200.00
2023-05-03T08:32:42.319Z,22688.00
2023-05-03T08:33:44.709Z,17984.00
2023-05-03T08:34:42.240Z,20960.00
2023-05-03T08:35:42.301Z,20864.00
2023-05-03T08:36:42.338Z,25536.00
2023-05-03T08:37:42.079Z,20096.00
2023-05-03T08:38:42.037Z,17372.00
2023-05-03T08:39:42.083Z,17284.00
2023-05-03T08:40:41.952Z,17004.00
2023-05-03T08:41:42.101Z,16032.00
2023-05-03T08:42:41.899Z,16080.00
2023-05-03T08:43:41.974Z,16216.00
2023-05-03T08:44:41.783Z,16040.00
2023-05-03T08:45:41.931Z,15808.00
2023-05-03T08:46:41.706Z,15656.00
2023-05-03T08:47:41.854Z,15600.00
2023-05-03T08:48:41.617Z,15940.00
2023-05-03T08:49:41.746Z,16492.00
2023-05-03T08:50:41.530Z,16864.00
2023-05-03T08:51:41.560Z,16800.00
2023-05-03T08:52:41.452Z,19328.00
2023-05-03T08:53:41.771Z,48992.00
2023-05-03T08:54:41.381Z,84224.00
2023-05-03T08:55:41.401Z,86560.00
2023-05-03T08:56:41.276Z,81056.00
2023-05-03T08:57:41.498Z,85856.00
2023-05-03T08:58:41.218Z,85952.00
2023-05-03T08:59:41.613Z,86560.00
2023-05-03T09:00:41.106Z,82688.00
2023-05-03T09:01:41.350Z,89216.00
2023-05-03T09:02:41.173Z,94272.00
2023-05-03T09:03:41.331Z,90048.00
2023-05-03T09:04:40.963Z,85792.00
2023-05-03T09:05:41.145Z,93152.00
2023-05-03T09:06:41.073Z,88352.00
2023-05-03T09:07:40.828Z,91680.00
2023-05-03T09:08:40.866Z,100768.00
2023-05-03T09:09:40.744Z,102016.00
2023-05-03T09:10:40.867Z,98048.00
2023-05-03T09:11:40.691Z,94016.00
2023-05-03T09:12:40.687Z,92224.00
2023-05-03T09:13:43.001Z,90432.00
2023-05-03T09:14:40.707Z,99264.00
2023-05-03T09:15:40.517Z,98208.00
2023-05-03T09:16:40.493Z,88704.00
2023-05-03T09:17:40.465Z,97312.00
2023-05-03T09:18:40.566Z,111936.00
2023-05-03T09:19:40.374Z,103808.00
2023-05-03T09:20:40.577Z,93408.00
2023-05-03T09:21:40.285Z,92544.00
2023-05-03T09:22:40.258Z,96192.00
2023-05-03T09:23:40.400Z,99072.00
2023-05-03T09:24:40.360Z,98336.00
2023-05-03T09:25:40.153Z,101408.00
2023-05-03T09:26:40.166Z,92576.00
2023-05-03T09:27:40.175Z,84576.00
2023-05-03T09:28:40.072Z,95232.00
2023-05-03T09:29:40.204Z,109056.00
2023-05-03T09:30:39.983Z,97568.00
2023-05-03T09:31:40.052Z,93856.00
2023-05-03T09:32:39.958Z,108736.00
2023-05-03T09:33:39.890Z,102432.00
2023-05-03T09:34:40.232Z,91520.00
2023-05-03T09:35:39.794Z,102016.00
2023-05-03T09:36:39.838Z,103552.00
2023-05-03T09:37:39.727Z,102144.00
2023-05-03T09:38:39.752Z,102656.00
2023-05-03T09:39:39.655Z,103008.00
2023-05-03T09:40:40.687Z,108192.00
2023-05-03T09:41:39.598Z,108800.00
2023-05-03T09:42:39.884Z,107392.00
2023-05-03T09:43:39.524Z,92928.00
2023-05-03T09:44:39.491Z,87872.00
2023-05-03T09:45:39.482Z,99872.00
2023-05-03T09:46:39.701Z,106048.00
2023-05-03T09:47:39.400Z,97312.00
2023-05-03T09:48:39.521Z,95840.00
2023-05-03T09:49:39.587Z,102208.00
2023-05-03T09:50:39.538Z,106304.00
2023-05-03T09:51:39.299Z,103008.00
2023-05-03T09:52:39.366Z,103104.00
2023-05-03T09:53:39.205Z,106080.00
2023-05-03T09:54:39.374Z,111008.00
2023-05-03T09:55:39.381Z,99424.00
2023-05-03T09:56:39.234Z,96544.00
2023-05-03T09:57:39.219Z,114624.00
2023-05-03T09:58:39.038Z,111168.00
2023-05-03T09:59:39.213Z,98592.00
2023-05-03T10:00:38.969Z,96032.00
2023-05-03T10:01:39.000Z,103360.00
2023-05-03T10:02:39.041Z,86944.00
2023-05-03T10:03:38.938Z,105408.00
2023-05-03T10:04:39.227Z,115680.00
2023-05-03T10:05:38.805Z,110944.00
2023-05-03T10:06:38.827Z,101376.00
2023-05-03T10:07:38.764Z,102272.00
2023-05-03T10:08:38.845Z,89632.00
2023-05-03T10:09:38.757Z,82976.00
2023-05-03T10:10:39.063Z,28096.00
2023-05-03T10:11:38.611Z,126080.00
2023-05-03T10:12:38.582Z,109280.00
2023-05-03T10:13:38.674Z,108416.00
2023-05-03T10:14:38.510Z,34144.00
2023-05-03T10:15:38.730Z,107200.00
2023-05-03T10:16:38.584Z,122208.00
2023-05-03T10:17:47.970Z,107680.00
2023-05-03T10:18:38.439Z,93280.00
2023-05-03T10:19:38.543Z,116064.00
2023-05-03T10:20:38.333Z,143264.00
2023-05-03T10:21:39.773Z,134624.00
2023-05-03T10:22:38.260Z,105984.00
2023-05-03T10:23:38.242Z,102144.00
2023-05-03T10:24:38.380Z,113728.00
2023-05-03T10:25:38.182Z,127040.00
2023-05-03T10:26:38.373Z,123520.00
2023-05-03T10:27:38.098Z,123584.00
2023-05-03T10:28:38.199Z,120640.00
2023-05-03T10:29:38.041Z,112640.00
2023-05-03T10:30:38.442Z,100288.00
2023-05-03T10:31:38.048Z,116320.00
2023-05-03T10:32:38.204Z,124416.00
2023-05-03T10:33:37.928Z,116576.00
2023-05-03T10:34:37.905Z,100160.00
2023-05-03T10:35:37.849Z,92448.00
2023-05-03T10:36:48.762Z,105568.00
2023-05-03T10:37:37.869Z,114688.00
2023-05-03T10:38:38.047Z,115392.00
2023-05-03T10:39:37.748Z,106656.00
2023-05-03T10:40:37.688Z,105152.00
2023-05-03T10:41:37.855Z,132480.00
2023-05-03T10:42:37.651Z,150240.00
2023-05-03T10:43:37.891Z,124160.00
2023-05-03T10:44:38.761Z,109376.00
2023-05-03T10:45:37.570Z,108672.00
2023-05-03T10:46:37.539Z,100704.00
2023-05-03T10:47:37.747Z,96736.00
2023-05-03T10:48:37.445Z,99456.00
2023-05-03T10:49:37.500Z,100896.00
2023-05-03T10:50:37.446Z,91904.00
2023-05-03T10:51:37.596Z,101728.00
2023-05-03T10:52:37.525Z,114080.00
2023-05-03T10:53:37.325Z,121888.00
2023-05-03T10:54:37.536Z,122976.00
2023-05-03T10:55:37.235Z,116064.00
2023-05-03T10:56:37.428Z,117120.00
2023-05-03T10:57:39.495Z,116576.00
2023-05-03T10:58:37.390Z,131712.00
2023-05-03T10:59:37.128Z,139392.00
2023-05-03T11:00:37.174Z,122880.00
2023-05-03T11:01:37.092Z,105184.00
2023-05-03T11:02:37.106Z,113760.00
2023-05-03T11:03:37.395Z,120288.00
2023-05-03T11:04:37.002Z,109696.00
2023-05-03T11:05:37.218Z,99872.00
2023-05-03T11:06:37.196Z,125408.00
2023-05-03T11:07:36.892Z,130592.00
2023-05-03T11:08:36.863Z,142368.00
2023-05-03T11:09:37.237Z,142016.00
2023-05-03T11:10:36.836Z,122336.00
2023-05-03T11:11:36.859Z,115968.00
2023-05-03T11:12:36.726Z,130464.00
2023-05-03T11:13:36.741Z,110432.00
2023-05-03T11:14:37.898Z,100512.00
2023-05-03T11:15:36.966Z,112160.00
2023-05-03T11:16:37.012Z,127200.00
2023-05-03T11:17:36.584Z,121856.00
2023-05-03T11:18:36.601Z,127680.00
2023-05-03T11:19:36.531Z,120704.00
2023-05-03T11:20:36.704Z,110912.00
2023-05-03T11:21:36.792Z,108224.00
2023-05-03T11:22:36.535Z,129024.00
2023-05-03T11:23:36.414Z,125920.00
2023-05-03T11:24:36.370Z,109344.00
2023-05-03T11:25:36.577Z,95168.00
2023-05-03T11:26:36.318Z,111264.00
2023-05-03T11:27:36.574Z,126240.00
2023-05-03T11:28:36.294Z,113728.00
2023-05-03T11:29:36.394Z,98336.00
2023-05-03T11:30:36.202Z,115200.00
2023-05-03T11:31:36.400Z,142624.00
2023-05-03T11:32:36.153Z,139008.00
2023-05-03T11:33:37.413Z,108192.00
2023-05-03T11:34:36.081Z,113024.00
2023-05-03T11:35:36.057Z,133920.00
2023-05-03T11:36:36.015Z,137184.00
2023-05-03T11:37:36.219Z,60256.00
2023-05-03T11:38:36.012Z,105728.00
2023-05-03T11:39:36.031Z,128416.00
2023-05-03T11:40:49.062Z,140448.00
2023-05-03T11:41:35.892Z,102976.00
2023-05-03T11:42:44.092Z,115136.00
2023-05-03T11:43:36.125Z,48352.00
2023-05-03T11:44:35.796Z,135552.00
2023-05-03T11:45:35.922Z,112032.00
2023-05-03T11:46:35.918Z,104032.00
2023-05-03T11:47:35.935Z,128960.00
2023-05-03T11:48:35.936Z,151552.00
2023-05-03T11:49:35.887Z,129408.00
2023-05-03T11:50:35.613Z,122752.00
2023-05-03T11:51:35.697Z,111616.00
2023-05-03T11:52:35.710Z,127136.00
2023-05-03T11:53:35.536Z,125472.00
2023-05-03T11:54:35.930Z,115008.00
2023-05-03T11:55:35.469Z,121600.00
2023-05-03T11:56:35.740Z,126720.00
2023-05-03T11:57:35.416Z,118656.00
2023-05-03T11:58:35.629Z,106336.00
2023-05-03T11:59:35.560Z,108768.00
2023-05-03T12:00:35.356Z,37536.00
2023-05-03T12:01:35.590Z,62784.00
2023-05-03T12:02:35.448Z,118336.00
2023-05-03T12:03:35.335Z,129344.00
2023-05-03T12:04:35.453Z,132448.00
2023-05-03T12:05:36.025Z,112992.00
2023-05-03T12:06:36.034Z,94688.00
2023-05-03T12:07:35.828Z,32800.00
2023-05-03T12:08:37.186Z,150880.00
2023-05-03T12:09:35.927Z,77792.00
2023-05-03T12:10:35.911Z,113248.00
2023-05-03T12:11:36.417Z,122656.00
2023-05-03T12:12:37.567Z,123040.00
2023-05-03T12:13:35.348Z,113248.00
2023-05-03T12:14:36.327Z,112224.00
2023-05-03T12:15:36.918Z,115296.00
2023-05-03T12:16:36.180Z,127616.00